Last server records
Pro Nub

Map info

smk_kzsca_mountaincliffs
smk_kzsca_mountaincliffs ( Cosy-Climbing) 08.08.2009
Cosy-Climbing record rawe - 04:03.17

KZ-Rush record rawe - 04:03.17

Mapper  SmK1337

Pro-record QuaD - 04:11.55

Nub-record -Gow- - 04:37.30 (98 cp / 11 gc)

Difficulty Easy-Average

Length Middle

Download map smk_kzsca_mountaincliffs (2,11 MB)
Installation instructions

Map Installation Guide

  1. Download map archive smk_kzsca_mountaincliffs.zip
  2. Unzip the archive in any convenient folder
  3. Open cstrike folder, which is located in the place of Counter-Strike installation. In case of Steam version the path looks like Steam\steamapps\common\Half-Life
  4. Copy all files from the folder, where you unzipped the archive, to cstrike folder according to the following table (if your system asks about replacing files, choose Copy and Replace):
maps/smk_kzsca_mountaincliffs.bsp>>maps/smk_kzsca_mountaincliffs.bsp
maps/smk_kzsca_mountaincliffs.res>>maps/smk_kzsca_mountaincliffs.res
models/kzsca/tree1.mdl>>models/kzsca/tree1.mdl
sound/kzsca/birds1.wav>>sound/kzsca/birds1.wav
sound/kzsca/waterrun.wav>>sound/kzsca/waterrun.wav
sprites/kzsca/SmK1337.spr>>sprites/kzsca/SmK1337.spr
We don't know about shortcuts on this map

Community records

# Player Time Difference Date  
1 rawe 04:03.17   06.11.19
2 avivVv 07:10.54 -03:07.37 31.01.21
3 popojopik 08:48.36 -04:45.19 22.03.20
# Player Time Date Weapon
1 QuaD 04:11.55 07.07.19
2 jobenz 04:14.37 23.08.20
3 HaMMa 04:19.58 16.11.18
4 sAnd 04:48.07 16.11.18
5 misti 04:51.25 08.03.20
6 SlasHeR 05:00.65 26.02.19
7 Smoothie 05:01.56 16.11.18
8 erdik 05:06.48 26.02.19
9 oRR 05:12.96 16.11.18
10 akula 05:16.12 16.11.18
11 California 05:17.10 12.10.20
12 bORN2MAKEPORN 05:34.31 16.11.18
13 taipan 05:41.51 15.01.19
14 mishko 05:42.99 24.01.21
15 Spaetiem 05:46.16 25.12.20
16 EcLiPSe 05:50.46 26.06.19
17 Zimok 05:51.69 24.01.21
18 DON_SIMON 06:02.91 16.11.18
19 LoGic_#Kz-Baltic 06:08.34 25.12.20
20 Andro 06:08.41 26.02.19
21 jungle 06:12.07 08.03.20
22 99999999 06:15.22 29.07.18
23 [WS] 06:18.71 15.01.19
24 RayajiN 06:25.50 16.11.18
25 zambonya 06:26.30 20.08.20
26 snegg 06:30.32 16.11.18
27 Masljonok 06:30.54 16.11.18
28 rang00 06:39.89 10.05.20
29 Leprikon_^ 06:40.69 15.01.19
30 Shockwave 06:41.64 26.02.19
31 PoOo 06:45.48 16.05.20
32 remain 06:45.56 05.05.20
33 NeffeX 06:46.88 15.01.19
34 jaguarBR 06:50.68 26.02.19
35 bluntsfromthecrypt 06:52.36 20.08.20
36 trololo 06:55.43 25.12.20
37 DragKedja 06:56.00 26.06.19
38 ie1 06:59.37 15.01.19
39 monta 07:14.99 09.09.20
40 estrom 07:18.76 18.11.18
41 SL1kroL 07:26.73 24.01.21
42 SURFING_CLUB__LONGBOARD_RODERS 07:26.97 15.01.19
43 Shinzo 07:27.77 11.10.20
44 Bu3T 07:30.06 16.11.18
45 pacMan 07:33.88 24.01.21
46 DRUGAN 07:35.61 24.06.18
47 PAMAH HAPKAMAH 07:39.73 16.11.18
48 R0N1._aim 07:45.10 16.11.18
49 blackfury 07:46.97 16.11.18
50 -=KaZaX=- 07:58.26 24.07.20
51 EXAMPLE 08:01.04 08.03.20
52 judas 08:03.87 24.01.21
53 goshopileto 08:04.65 24.07.20
54 k1ever 08:10.64 16.11.18
55 HD_Gunnar 08:12.95 07.09.19
56 CoMeBaCK 08:15.12 05.05.20
57 PoweR 08:17.22 16.05.20
58 FARRY 08:17.46 16.07.20
59 abcdefg 08:22.59 24.06.18
60 HjG-KazmaN 08:32.16 11.11.19
61 puk 08:32.80 16.11.18
62 cstrike 08:32.96 20.08.20
63 shizzLe_all_day! 08:53.80 26.02.19
64 tolyatti 08:54.60 16.11.18
65 zeke#GP 09:06.36 05.05.20
66 Prebac 09:07.60 07.07.19
67 AKB 09:16.70 24.01.21
68 Player 09:21.76 15.01.19
69 NecroDatz 09:26.97 24.01.21
70 stopban 09:32.59 25.12.20
71 reatzh 09:36.81 07.09.19
72 1Hui 09:39.41 29.07.18
73 hymm4sssS 09:41.30 16.05.20
74 yoofz 09:48.93 20.08.20
75 mvxtip 09:50.12 26.02.19
76 KaZaX 09:56.16 20.08.20
77 W1nS 09:57.28 30.03.20
78 shraga 10:19.17 25.12.20
79 avivVv 10:28.71 20.08.20
80 dark69 10:30.15 26.06.19
81 Igor_4_.`_WeLt 10:33.27 15.01.19
82 Nex 10:59.31 07.09.19
83 mrp 11:01.58 16.05.20
84 rbN[z0r] 11:04.17 16.11.18
85 Telegin 11:08.56 16.05.20
86 Acubens 11:15.49 15.01.19
87 rapier 11:19.61 05.05.20
88 6ix6ix6ix 11:20.00 09.09.20
89 minimum1337 11:42.59 16.05.20
90 @estonec^A 12:11.50 15.01.19
91 Dodik 12:17.18 07.07.19
92 BoGGy 12:22.73 08.03.20
93 lazy 12:59.59 24.01.21
94 8ball1 13:21.61 08.03.20
95 1661.BbE0 14:09.55 24.01.21
96 Conquest_l_Okich__R 15:36.25 29.12.18
97 Marshmell0 15:40.93 26.06.19
98 Seth 16:45.75 05.05.20
99 Presive 16:52.82 11.11.19
100 myinkluch 23:36.63 16.05.20
101 f1t 25:45.51 26.02.19
# Player Time Date Weapon CP GC
1 -Gow- 04:37.30 16.11.18 98 11
2 Clizma 04:43.29 16.11.18 121 6
3 [WS] 04:52.09 15.01.19 110 12
4 Aurora 04:54.69 08.03.20 110 4
5 berserker 05:00.26 16.11.18 65 12
6 Mara_Salvatrucha 05:08.19 18.06.18 106 8
7 Pandemic 05:08.52 07.09.19 111 11
8 Shinzo 05:11.09 16.11.18 143 15
9 taipan 05:14.81 15.01.19 118 12
10 inj3ct0r. 05:17.08 16.11.18 146 22
11 Madcat 05:17.09 07.07.19 145 14
12 lai 05:23.58 30.03.20 150 15
13 wooo 05:23.79 16.11.18 127 8
14 dAREALZYX 05:26.04 05.05.20 130 10
15 FunTopia 05:27.46 15.01.19 127 22
16 lacoste 05:28.52 19.11.18 109 17
17 KaHapeuKa.brn 05:28.83 05.05.20 126 15
18 stopban 05:34.90 24.01.21 131 27
19 bORN2MAKEPORN 05:36.01 16.05.20 112 16
20 Xixi 05:36.73 05.05.20 155 23
21 CamelCloud 05:40.67 16.05.20 115 29
22 EcLiPSe 05:44.68 26.06.19 128 18
23 JustDoIt 05:46.28 16.11.18 145 16
24 LOVEG 05:54.64 16.11.18 174 13
25 mishko 05:57.93 24.01.21 197 19
26 akula 05:59.25 16.11.18 130 37
27 zuziz0r 06:00.83 07.09.19 134 21
28 pussymeaw 06:02.46 09.09.20 117 26
29 DRUGAN 06:07.66 30.03.20 157 16
30 sumting 06:07.85 07.07.19 136 41
31 Stanley 06:08.46 29.12.18 184 27
32 RoN` 06:11.13 19.11.18 129 33
33 flores 06:12.78 15.01.19 163 43
34 guz-.- 06:18.45 25.12.20 123 18
35 dora_the_explorer 06:20.17 06.12.19 162 17
36 Jastix 06:24.42 24.01.21 130 36
37 Azzazello 06:28.52 10.05.20 134 27
38 -ggbb. 06:33.06 16.11.18 146 35
39 HaMMa 06:36.58 07.09.19 93 41
40 Jmuriq 06:36.80 15.01.19 152 36
41 Player 06:43.66 29.12.18 39 21
42 paradox 06:43.94 07.07.19 161 33
43 Prebac 06:45.00 07.07.19 146 31
44 CoMeBaCK 06:45.39 05.05.20 137 46
45 1WERANCE 06:45.93 29.07.18 178 38
46 playerS 06:50.13 18.06.18 139 43
47 Shockwave 06:52.38 26.02.19 173 36
48 nuHaKoJIaga 06:52.51 16.05.20 142 29
49 R3L4P53 06:54.81 16.11.18 195 45
50 makseEz0r 06:55.20 15.01.19 103 43
51 gamegeekx 06:56.00 29.12.18 114 44
52 entropy 06:58.18 11.10.20 69 32
53 cyxue_nonku^huggies 06:58.77 05.05.20 154 36
54 sliuM 06:59.54 18.01.19 197 34
55 qwerty 07:00.44 16.11.18 119 34
56 Alf 07:02.97 16.11.18 191 49
57 ~HR~7fAta 07:04.45 08.03.20 139 50
58 Koce 07:05.09 08.03.20 191 26
59 Bananus 07:05.46 07.07.19 140 27
60 Vaginapingvina_(D1ma$) 07:05.79 15.01.19 136 27
61 CHooK=] 07:09.51 24.06.18 124 46
62 Kerwin 07:10.23 16.11.18 139 30
63 actepukc 07:16.28 15.01.19 155 62
64 KaGeBe 07:23.13 07.09.19 226 42
65 ~Ow| BJJ 07:23.97 15.01.19 167 41
66 Shanta 07:25.64 05.05.20 159 36
67 Hudda 07:26.04 24.01.21 147 28
68 Aleshka 07:26.63 18.01.19 145 41
69 Kim5 07:27.44 18.01.19 137 44
70 W1nS 07:28.38 16.11.18 144 43
71 куку 07:30.74 08.03.20 177 39
72 СоДнаАда) 07:31.37 08.03.20 214 52
73 estrom 07:32.10 16.11.18 169 39
74 mvxtip 07:36.91 26.02.19 179 44
75 6ix6ix6ix 07:37.45 20.08.20 145 61
76 p3ff 07:38.91 15.01.19 144 36
77 Player 07:40.57 16.11.18 99 62
78 Lady 07:46.46 07.07.19 191 46
79 dark69 07:46.55 26.06.19 177 61
80 PUMPUMTUTUTUGRRRAAAA 07:47.57 16.11.18 96 55
81 blackfury 07:55.12 16.11.18 163 69
82 gangnam_style 07:56.15 09.09.20 174 36
83 tommy 07:56.55 26.02.19 152 74
84 S1D 07:56.91 25.12.20 168 54
85 ACID_THUNDER 07:57.73 11.11.19 91 45
86 asd 08:04.51 07.09.19 157 56
87 EXAMPLE 08:09.52 08.03.20 117 34
88 puk 08:13.11 16.11.18 87 35
89 Flomaster 08:13.65 26.02.19 141 54
90 k1ever 08:14.42 16.11.18 177 50
91 take_me_to_church 08:14.70 08.03.20 116 42
92 diana 08:14.78 25.12.20 145 44
93 Dodik 08:15.54 07.07.19 220 36
94 reflx 08:16.96 16.11.18 122 62
95 Andris 08:17.19 16.05.20 205 78
96 alsofter 08:24.38 16.11.18 131 55
97 BoGGy 08:30.48 08.03.20 211 67
98 ei-zmei 08:37.09 07.09.19 36 15
99 unstoppable 08:41.43 20.08.20 172 71
100 [alekseq] 08:41.65 11.11.19 174 76
101 Nex 08:45.00 07.09.19 116 44
102 Galaktus 08:47.84 08.03.20 161 36
103 atopsgaming 08:50.33 05.05.20 202 74
104 Origami 08:50.83 16.05.20 173 68
105 Seth 08:57.29 05.05.20 153 46
106 XobQuit 09:00.38 29.12.18 172 40
107 BeHeFeWowwwwwww# 09:01.88 08.03.20 213 86
108 Gzp 09:04.50 16.11.18 195 56
109 fingerdash 09:12.44 16.11.18 148 63
110 transcute 09:13.12 24.06.18 159 58
111 SaVy777 09:16.84 09.10.20 180 75
112 Ferea 09:33.99 24.01.21 160 110
113 XX_Abba 09:35.58 16.11.18 172 75
114 sml2H 09:40.37 20.08.20 148 62
115 shraga 09:41.51 05.05.20 185 81
116 dragonfirezZ 09:47.13 16.11.18 198 71
117 kacko 09:47.89 08.03.20 63 56
118 Sashka327 09:51.60 16.11.18 98 53
119 myinkluch 09:57.08 05.05.20 170 113
120 Harys 09:57.86 25.12.20 133 113
121 BEBE 10:04.31 08.03.20 176 99
122 abvgd 10:07.01 26.02.19 184 71
123 balboa16 10:10.14 05.05.20 111 43
124 dobrota 10:25.34 07.07.19 168 58
125 adrenalino 10:29.32 16.05.20 102 78
126 givar_O3_Rus 10:29.80 30.03.20 113 99
127 mls 10:32.43 11.11.19 194 77
128 monO_Ob_le_sp3ctat3ur 10:32.73 16.05.20 214 101
129 Fastshot 10:33.74 16.11.18 130 82
130 lambda 10:40.38 26.02.19 204 134
131 `AvAl0N 10:58.80 25.12.20 217 132
132 TALAHT 11:25.54 16.11.18 63 32
133 Pirojok_S_Nichem 11:26.04 16.11.18 188 103
134 Alesha 11:26.40 16.11.18 199 70
135 urodka404 11:48.17 16.05.20 156 149
136 mYm~fYRR73 11:55.61 16.11.18 139 46
137 LOGIKAAAAAAAAAAAAA 11:56.08 16.11.18 142 116
138 Murderes46 12:00.86 26.02.19 138 133
139 ultrasi 12:07.86 26.02.19 110 64
140 TAHK 12:08.42 18.06.18 177 145
141 8ball1 12:13.12 08.03.20 26 27
142 turritopsis 12:14.87 18.01.19 122 133
143 g 12:34.83 10.05.20 104 119
144 arr1v1derci 12:49.76 11.11.19 163 138
145 SuLuKoH 13:40.69 08.03.20 167 182
146 WhatToChooseDeath 15:02.30 07.07.19 97 125
147 Stardog 15:25.12 15.01.19 167 89
148 savage 15:33.92 16.11.18 115 167
149 Fone.Gludd 30:38.64 15.01.19 255 440
# Player Time Date Weapon CP GC
1 cstrike 17:24.97 20.08.20 227 281

Other maps with same difficulty

Other maps from Cosy-Climbing

Other maps from mapper SmK1337